Pedro Velho, Brazil
Current Conditions -  °F | °C
As of 7:00 AM on Monday 20 Oct 2014 (Local Time) from SBNT Reporting Station
Scattered Clouds Scattered Clouds  
Wind Chill: 81°   Ceiling: Unl
Heat Index: 83°   Visibility: 6mi
Dew Point: 68°   Wind: 16mph
Humidity: 65%   Direction: 120°ESE
Pressure: 29.94"   Gusts: NA
Location:  6.44°S, 35.22°W
Report Text: SBNT 201000Z 12014KT 9999 SCT021 27/20 Q1014
Loading
Personal Weather Stations






























Interactive Weather Map
Tropical Storm Tracking
New forecast layout! Learn more

10-Day Weather Forecast

Advertisements
Track Severe Weather on mobile